sensor_id;sensor_type;location;lat;lon;timestamp;pressure;altitude;pressure_sealevel;temperature;humidity
67842;BME280;54642;59.126;37.876;2023-04-25T00:01:45;99639.66;;;15.16;42.15
67842;BME280;54642;59.126;37.876;2023-04-25T00:04:11;99630.41;;;15.06;42.18
67842;BME280;54642;59.126;37.876;2023-04-25T00:06:37;99636.56;;;15.03;42.03
67842;BME280;54642;59.126;37.876;2023-04-25T00:09:04;99638.84;;;15.14;42.34
67842;BME280;54642;59.126;37.876;2023-04-25T00:11:33;99646.00;;;15.07;42.08
67842;BME280;54642;59.126;37.876;2023-04-25T00:13:59;99606.81;;;14.81;42.03
67842;BME280;54642;59.126;37.876;2023-04-25T00:16:27;99658.28;;;15.04;42.34
67842;BME280;54642;59.126;37.876;2023-04-25T00:18:54;99649.66;;;15.02;42.21
67842;BME280;54642;59.126;37.876;2023-04-25T00:21:20;99631.03;;;14.84;42.51
67842;BME280;54642;59.126;37.876;2023-04-25T00:23:46;99647.38;;;14.90;42.31
67842;BME280;54642;59.126;37.876;2023-04-25T00:26:12;99649.16;;;14.89;42.32
67842;BME280;54642;59.126;37.876;2023-04-25T00:28:39;99644.34;;;14.75;42.39
67842;BME280;54642;59.126;37.876;2023-04-25T00:31:05;99625.72;;;14.56;42.59
67842;BME280;54642;59.126;37.876;2023-04-25T00:33:31;99658.56;;;14.65;42.82
67842;BME280;54642;59.126;37.876;2023-04-25T00:35:57;99599.16;;;14.43;42.74
67842;BME280;54642;59.126;37.876;2023-04-25T00:38:24;99593.97;;;14.42;42.51
67842;BME280;54642;59.126;37.876;2023-04-25T00:40:50;99638.63;;;14.62;42.52
67842;BME280;54642;59.126;37.876;2023-04-25T00:43:16;99645.50;;;14.65;42.78
67842;BME280;54642;59.126;37.876;2023-04-25T00:45:42;99640.50;;;14.56;42.74
67842;BME280;54642;59.126;37.876;2023-04-25T00:48:09;99653.41;;;14.62;42.67
67842;BME280;54642;59.126;37.876;2023-04-25T00:50:36;99651.69;;;14.61;43.46
67842;BME280;54642;59.126;37.876;2023-04-25T00:53:02;99655.22;;;14.60;42.87
67842;BME280;54642;59.126;37.876;2023-04-25T00:55:29;99617.41;;;14.43;43.21
67842;BME280;54642;59.126;37.876;2023-04-25T00:57:57;99658.59;;;14.63;42.89
67842;BME280;54642;59.126;37.876;2023-04-25T01:00:23;99655.22;;;14.60;42.97
67842;BME280;54642;59.126;37.876;2023-04-25T01:02:49;99644.25;;;14.47;43.03
67842;BME280;54642;59.126;37.876;2023-04-25T01:05:16;99651.91;;;14.52;43.07
67842;BME280;54642;59.126;37.876;2023-04-25T01:07:42;99652.75;;;14.52;43.08
67842;BME280;54642;59.126;37.876;2023-04-25T01:10:09;99620.25;;;14.34;43.06
67842;BME280;54642;59.126;37.876;2023-04-25T01:12:37;99662.38;;;14.50;43.12
67842;BME280;54642;59.126;37.876;2023-04-25T01:15:03;99661.78;;;14.40;42.75
67842;BME280;54642;59.126;37.876;2023-04-25T01:17:29;99653.34;;;14.30;43.32
67842;BME280;54642;59.126;37.876;2023-04-25T01:19:57;99653.34;;;14.30;43.32
67842;BME280;54642;59.126;37.876;2023-04-25T01:22:23;99659.44;;;14.31;43.03
67842;BME280;54642;59.126;37.876;2023-04-25T01:24:50;99616.66;;;14.05;43.21
67842;BME280;54642;59.126;37.876;2023-04-25T01:27:16;99662.09;;;14.29;43.24
67842;BME280;54642;59.126;37.876;2023-04-25T01:29:44;99656.94;;;14.26;43.36
67842;BME280;54642;59.126;37.876;2023-04-25T01:32:10;99667.31;;;14.29;43.01
67842;BME280;54642;59.126;37.876;2023-04-25T01:34:36;99668.31;;;14.24;43.19
67842;BME280;54642;59.126;37.876;2023-04-25T01:37:02;99660.66;;;14.18;43.31
67842;BME280;54642;59.126;37.876;2023-04-25T01:39:29;99617.97;;;13.89;43.42
67842;BME280;54642;59.126;37.876;2023-04-25T01:41:56;99666.84;;;14.14;43.26
67842;BME280;54642;59.126;37.876;2023-04-25T01:44:22;99647.91;;;14.07;43.62
67842;BME280;54642;59.126;37.876;2023-04-25T01:46:48;99620.56;;;13.89;43.48
67842;BME280;54642;59.126;37.876;2023-04-25T01:49:14;99655.00;;;14.00;43.97
67842;BME280;54642;59.126;37.876;2023-04-25T01:51:42;99666.94;;;14.09;43.95
67842;BME280;54642;59.126;37.876;2023-04-25T01:54:10;99673.06;;;14.08;43.77
67842;BME280;54642;59.126;37.876;2023-04-25T01:56:38;99675.72;;;14.06;43.62
67842;BME280;54642;59.126;37.876;2023-04-25T01:59:06;99674.75;;;14.09;43.72
67842;BME280;54642;59.126;37.876;2023-04-25T02:01:54;99669.47;;;14.12;43.59
67842;BME280;54642;59.126;37.876;2023-04-25T02:04:26;99679.66;;;14.21;43.39
67842;BME280;54642;59.126;37.876;2023-04-25T02:06:52;99690.13;;;14.20;43.90
67842;BME280;54642;59.126;37.876;2023-04-25T02:09:18;99670.22;;;14.17;43.52
67842;BME280;54642;59.126;37.876;2023-04-25T02:11:50;99676.28;;;14.18;43.62
67842;BME280;54642;59.126;37.876;2023-04-25T02:14:39;99644.59;;;14.00;43.75
67842;BME280;54642;59.126;37.876;2023-04-25T02:17:20;99587.31;;;13.64;43.31
67842;BME280;54642;59.126;37.876;2023-04-25T02:19:47;99689.25;;;14.21;43.40
67842;BME280;54642;59.126;37.876;2023-04-25T02:22:13;99682.41;;;14.17;43.60
67842;BME280;54642;59.126;37.876;2023-04-25T02:24:39;99677.09;;;14.20;43.47
67842;BME280;54642;59.126;37.876;2023-04-25T02:27:05;99687.47;;;14.21;43.49
67842;BME280;54642;59.126;37.876;2023-04-25T02:29:31;99697.88;;;14.23;43.57
67842;BME280;54642;59.126;37.876;2023-04-25T02:31:57;99688.75;;;14.06;43.52
67842;BME280;54642;59.126;37.876;2023-04-25T02:34:23;99687.13;;;14.02;43.54
67842;BME280;54642;59.126;37.876;2023-04-25T02:36:49;99709.03;;;13.94;43.79
67842;BME280;54642;59.126;37.876;2023-04-25T02:39:17;99677.41;;;13.71;43.95
67842;BME280;54642;59.126;37.876;2023-04-25T02:41:43;99693.88;;;13.73;44.12
67842;BME280;54642;59.126;37.876;2023-04-25T02:44:09;99691.34;;;13.70;44.15
67842;BME280;54642;59.126;37.876;2023-04-25T02:46:37;99687.78;;;13.75;44.47
67842;BME280;54642;59.126;37.876;2023-04-25T02:49:02;99687.47;;;13.87;44.47
67842;BME280;54642;59.126;37.876;2023-04-25T02:51:29;99688.94;;;13.99;44.24
67842;BME280;54642;59.126;37.876;2023-04-25T02:53:56;99701.84;;;14.03;44.31
67842;BME280;54642;59.126;37.876;2023-04-25T02:56:22;99637.53;;;13.69;44.21
67842;BME280;54642;59.126;37.876;2023-04-25T02:58:48;99676.22;;;13.86;44.09
67842;BME280;54642;59.126;37.876;2023-04-25T03:01:14;99687.47;;;13.87;44.10
67842;BME280;54642;59.126;37.876;2023-04-25T03:03:40;99695.22;;;13.90;44.08
67842;BME280;54642;59.126;37.876;2023-04-25T03:06:06;99678.03;;;13.83;44.35
67842;BME280;54642;59.126;37.876;2023-04-25T03:08:32;99695.28;;;13.87;44.41
67842;BME280;54642;59.126;37.876;2023-04-25T03:11:01;99696.00;;;13.94;44.23
67842;BME280;54642;59.126;37.876;2023-04-25T03:13:27;99632.66;;;13.56;44.53
67842;BME280;54642;59.126;37.876;2023-04-25T03:15:55;99704.66;;;13.94;44.36
67842;BME280;54642;59.126;37.876;2023-04-25T03:18:21;99710.56;;;14.02;44.60
67842;BME280;54642;59.126;37.876;2023-04-25T03:20:47;99653.91;;;13.75;44.19
67842;BME280;54642;59.126;37.876;2023-04-25T03:23:13;99693.28;;;13.98;44.32
67842;BME280;54642;59.126;37.876;2023-04-25T03:25:41;99652.22;;;13.73;44.49
67842;BME280;54642;59.126;37.876;2023-04-25T03:28:07;99667.25;;;13.61;44.77
67842;BME280;54642;59.126;37.876;2023-04-25T03:30:33;99698.56;;;13.95;44.40
67842;BME280;54642;59.126;37.876;2023-04-25T03:33:00;99603.59;;;13.38;44.62
67842;BME280;54642;59.126;37.876;2023-04-25T03:35:26;99704.78;;;13.89;44.68
67842;BME280;54642;59.126;37.876;2023-04-25T03:37:52;99667.13;;;13.67;44.76
67842;BME280;54642;59.126;37.876;2023-04-25T03:40:24;99702.06;;;13.94;44.30
67842;BME280;54642;59.126;37.876;2023-04-25T03:43:16;99702.28;;;13.85;44.96
67842;BME280;54642;59.126;37.876;2023-04-25T03:45:48;99703.16;;;13.84;44.97
67842;BME280;54642;59.126;37.876;2023-04-25T03:48:15;99657.78;;;13.58;45.16
67842;BME280;54642;59.126;37.876;2023-04-25T03:50:41;99679.94;;;13.76;44.98
67842;BME280;54642;59.126;37.876;2023-04-25T03:53:07;99715.97;;;13.93;44.82
67842;BME280;54642;59.126;37.876;2023-04-25T03:55:53;99702.25;;;13.86;44.97
67842;BME280;54642;59.126;37.876;2023-04-25T03:58:19;99722.94;;;13.92;44.96
67842;BME280;54642;59.126;37.876;2023-04-25T04:00:45;99692.75;;;13.84;44.93
67842;BME280;54642;59.126;37.876;2023-04-25T04:03:11;99715.09;;;13.94;45.02
67842;BME280;54642;59.126;37.876;2023-04-25T04:05:37;99716.06;;;13.90;45.02
67842;BME280;54642;59.126;37.876;2023-04-25T04:08:06;99715.19;;;13.89;45.30
67842;BME280;54642;59.126;37.876;2023-04-25T04:10:32;99710.09;;;13.85;45.27
67842;BME280;54642;59.126;37.876;2023-04-25T04:12:59;99700.50;;;13.87;45.23
67842;BME280;54642;59.126;37.876;2023-04-25T04:15:24;99704.63;;;13.96;45.33
67842;BME280;54642;59.126;37.876;2023-04-25T04:17:50;99662.53;;;13.77;45.42
67842;BME280;54642;59.126;37.876;2023-04-25T04:20:17;99698.41;;;14.01;45.05
67842;BME280;54642;59.126;37.876;2023-04-25T04:22:43;99699.16;;;14.06;45.06
67842;BME280;54642;59.126;37.876;2023-04-25T04:25:12;99689.63;;;14.05;45.25
67842;BME280;54642;59.126;37.876;2023-04-25T04:27:58;99701.69;;;14.09;45.10
67842;BME280;54642;59.126;37.876;2023-04-25T04:30:47;99705.91;;;14.15;44.97
67842;BME280;54642;59.126;37.876;2023-04-25T04:33:17;99704.13;;;14.16;44.92
67842;BME280;54642;59.126;37.876;2023-04-25T04:35:45;99701.44;;;14.20;45.13
67842;BME280;54642;59.126;37.876;2023-04-25T04:38:13;99701.38;;;14.22;44.95
67842;BME280;54642;59.126;37.876;2023-04-25T04:40:41;99697.84;;;14.24;45.04
67842;BME280;54642;59.126;37.876;2023-04-25T04:43:33;99711.56;;;14.31;44.98
67842;BME280;54642;59.126;37.876;2023-04-25T04:46:37;99700.22;;;14.32;44.81
67842;BME280;54642;59.126;37.876;2023-04-25T04:49:30;99699.28;;;14.36;44.59
67842;BME280;54642;59.126;37.876;2023-04-25T04:52:19;99683.63;;;14.36;45.04
67842;BME280;54642;59.126;37.876;2023-04-25T04:55:03;99658.81;;;14.21;44.78
67842;BME280;54642;59.126;37.876;2023-04-25T04:57:42;99710.22;;;14.49;44.68
67842;BME280;54642;59.126;37.876;2023-04-25T05:00:18;99678.50;;;14.33;44.86
67842;BME280;54642;59.126;37.876;2023-04-25T05:03:06;99711.78;;;14.58;44.77
67842;BME280;54642;59.126;37.876;2023-04-25T05:05:47;99668.50;;;14.49;44.58
67842;BME280;54642;59.126;37.876;2023-04-25T05:08:45;99630.38;;;14.45;44.51
67842;BME280;54642;59.126;37.876;2023-04-25T05:11:11;99694.28;;;14.93;44.04
67842;BME280;54642;59.126;37.876;2023-04-25T05:13:53;99670.94;;;14.88;43.91
67842;BME280;54642;59.126;37.876;2023-04-25T05:16:42;99692.53;;;15.23;44.07
67842;BME280;54642;59.126;37.876;2023-04-25T05:19:26;99684.53;;;15.29;43.80
67842;BME280;54642;59.126;37.876;2023-04-25T05:22:13;99690.44;;;15.34;43.67
67842;BME280;54642;59.126;37.876;2023-04-25T05:24:54;99686.03;;;15.36;43.32
67842;BME280;54642;59.126;37.876;2023-04-25T05:27:32;99679.06;;;15.37;43.47
67842;BME280;54642;59.126;37.876;2023-04-25T05:30:10;99702.34;;;15.43;43.54
67842;BME280;54642;59.126;37.876;2023-04-25T05:32:54;99697.38;;;15.35;43.75
67842;BME280;54642;59.126;37.876;2023-04-25T05:35:27;99694.69;;;15.38;43.32
67842;BME280;54642;59.126;37.876;2023-04-25T05:37:58;99698.00;;;15.43;43.49
67842;BME280;54642;59.126;37.876;2023-04-25T05:40:38;99707.50;;;15.46;43.41
67842;BME280;54642;59.126;37.876;2023-04-25T05:43:16;99699.66;;;15.46;43.42
67842;BME280;54642;59.126;37.876;2023-04-25T05:46:04;99706.28;;;15.58;43.31
67842;BME280;54642;59.126;37.876;2023-04-25T05:48:44;99677.22;;;15.40;43.13
67842;BME280;54642;59.126;37.876;2023-04-25T05:51:36;99658.53;;;15.24;43.26
67842;BME280;54642;59.126;37.876;2023-04-25T05:54:26;99708.00;;;15.57;43.63
67842;BME280;54642;59.126;37.876;2023-04-25T05:56:56;99694.34;;;15.49;43.61
67842;BME280;54642;59.126;37.876;2023-04-25T05:59:22;99691.53;;;15.55;43.66
67842;BME280;54642;59.126;37.876;2023-04-25T06:01:48;99678.78;;;15.46;43.73
67842;BME280;54642;59.126;37.876;2023-04-25T06:04:14;99665.63;;;15.49;43.63
67842;BME280;54642;59.126;37.876;2023-04-25T06:06:40;99655.91;;;15.54;44.22
67842;BME280;54642;59.126;37.876;2023-04-25T06:09:06;99672.78;;;15.71;44.54
67842;BME280;54642;59.126;37.876;2023-04-25T06:11:32;99701.75;;;15.91;44.75
67842;BME280;54642;59.126;37.876;2023-04-25T06:14:13;99710.16;;;16.01;45.30
67842;BME280;54642;59.126;37.876;2023-04-25T06:16:44;99681.59;;;15.95;45.15
67842;BME280;54642;59.126;37.876;2023-04-25T06:19:10;99663.34;;;15.93;44.92
67842;BME280;54642;59.126;37.876;2023-04-25T06:21:36;99660.69;;;15.95;44.32
67842;BME280;54642;59.126;37.876;2023-04-25T06:24:02;99706.66;;;16.27;43.43
67842;BME280;54642;59.126;37.876;2023-04-25T06:26:28;99675.91;;;16.09;43.33
67842;BME280;54642;59.126;37.876;2023-04-25T06:28:54;99710.97;;;16.28;43.01
67842;BME280;54642;59.126;37.876;2023-04-25T06:31:20;99709.81;;;16.37;42.57
67842;BME280;54642;59.126;37.876;2023-04-25T06:33:47;99707.44;;;16.29;42.70
67842;BME280;54642;59.126;37.876;2023-04-25T06:36:14;99664.69;;;16.05;42.83
67842;BME280;54642;59.126;37.876;2023-04-25T06:38:41;99722.53;;;16.48;42.34
67842;BME280;54642;59.126;37.876;2023-04-25T06:41:07;99713.13;;;16.42;42.50
67842;BME280;54642;59.126;37.876;2023-04-25T06:43:35;99718.84;;;16.53;42.41
67842;BME280;54642;59.126;37.876;2023-04-25T06:46:21;99721.53;;;16.75;42.01
67842;BME280;54642;59.126;37.876;2023-04-25T06:48:48;99734.81;;;16.71;41.85
67842;BME280;54642;59.126;37.876;2023-04-25T06:51:16;99715.69;;;16.44;41.86
67842;BME280;54642;59.126;37.876;2023-04-25T06:53:43;99696.59;;;16.15;41.85
67842;BME280;54642;59.126;37.876;2023-04-25T06:56:16;99730.75;;;16.37;41.90
67842;BME280;54642;59.126;37.876;2023-04-25T06:59:12;99727.75;;;16.48;42.01
67842;BME280;54642;59.126;37.876;2023-04-25T07:01:39;99739.47;;;16.61;41.76
67842;BME280;54642;59.126;37.876;2023-04-25T07:04:14;99723.69;;;16.64;41.59
67842;BME280;54642;59.126;37.876;2023-04-25T07:06:45;99738.72;;;16.84;41.45
67842;BME280;54642;59.126;37.876;2023-04-25T07:09:18;99703.59;;;16.90;40.97
67842;BME280;54642;59.126;37.876;2023-04-25T07:11:46;99744.47;;;17.18;40.66
67842;BME280;54642;59.126;37.876;2023-04-25T07:14:12;99735.53;;;17.23;40.60
67842;BME280;54642;59.126;37.876;2023-04-25T07:16:39;99737.34;;;17.45;40.30
67842;BME280;54642;59.126;37.876;2023-04-25T07:19:05;99716.22;;;17.71;40.48
67842;BME280;54642;59.126;37.876;2023-04-25T07:21:31;99724.25;;;17.90;39.62
67842;BME280;54642;59.126;37.876;2023-04-25T07:24:00;99734.88;;;18.08;39.62
67842;BME280;54642;59.126;37.876;2023-04-25T07:26:31;99731.00;;;17.96;39.43
67842;BME280;54642;59.126;37.876;2023-04-25T07:29:19;99740.78;;;18.13;39.39
67842;BME280;54642;59.126;37.876;2023-04-25T07:31:45;99739.44;;;18.25;39.56
67842;BME280;54642;59.126;37.876;2023-04-25T07:34:12;99750.00;;;18.44;38.98
67842;BME280;54642;59.126;37.876;2023-04-25T07:36:38;99730.47;;;18.51;39.06
67842;BME280;54642;59.126;37.876;2023-04-25T07:39:05;99730.31;;;18.54;38.92
67842;BME280;54642;59.126;37.876;2023-04-25T07:41:31;99725.59;;;18.42;38.50
67842;BME280;54642;59.126;37.876;2023-04-25T07:43:58;99703.94;;;18.16;38.31
67842;BME280;54642;59.126;37.876;2023-04-25T07:46:25;99752.72;;;18.20;38.47
67842;BME280;54642;59.126;37.876;2023-04-25T07:48:52;99766.75;;;17.97;38.44
67842;BME280;54642;59.126;37.876;2023-04-25T07:51:17;99714.38;;;17.51;38.65
67842;BME280;54642;59.126;37.876;2023-04-25T07:53:46;99760.78;;;17.71;38.98
67842;BME280;54642;59.126;37.876;2023-04-25T07:56:15;99759.41;;;17.61;38.67
67842;BME280;54642;59.126;37.876;2023-04-25T07:58:43;99752.53;;;17.59;38.54
67842;BME280;54642;59.126;37.876;2023-04-25T08:01:12;99754.53;;;17.52;38.60
67842;BME280;54642;59.126;37.876;2023-04-25T08:03:55;99754.91;;;17.65;38.47
67842;BME280;54642;59.126;37.876;2023-04-25T08:06:41;99760.03;;;17.68;38.48
67842;BME280;54642;59.126;37.876;2023-04-25T08:09:12;99741.38;;;17.53;38.15
67842;BME280;54642;59.126;37.876;2023-04-25T08:11:41;99765.28;;;17.68;38.05
67842;BME280;54642;59.126;37.876;2023-04-25T08:14:10;99758.25;;;17.68;38.13
67842;BME280;54642;59.126;37.876;2023-04-25T08:16:38;99756.78;;;17.61;37.99
67842;BME280;54642;59.126;37.876;2023-04-25T08:19:04;99731.53;;;17.60;37.72
67842;BME280;54642;59.126;37.876;2023-04-25T08:21:30;99744.31;;;17.68;37.80
67842;BME280;54642;59.126;37.876;2023-04-25T08:24:00;99723.81;;;17.56;37.45
67842;BME280;54642;59.126;37.876;2023-04-25T08:26:29;99755.69;;;17.90;37.41
67842;BME280;54642;59.126;37.876;2023-04-25T08:28:56;99742.94;;;18.03;37.46
67842;BME280;54642;59.126;37.876;2023-04-25T08:31:22;99749.75;;;18.50;36.82
67842;BME280;54642;59.126;37.876;2023-04-25T08:33:54;99753.00;;;18.76;36.37
67842;BME280;54642;59.126;37.876;2023-04-25T08:36:32;99746.53;;;18.84;36.56
67842;BME280;54642;59.126;37.876;2023-04-25T08:38:58;99668.81;;;18.41;36.24
67842;BME280;54642;59.126;37.876;2023-04-25T08:41:25;99745.47;;;18.89;36.32
67842;BME280;54642;59.126;37.876;2023-04-25T08:43:53;99739.97;;;18.95;36.58
67842;BME280;54642;59.126;37.876;2023-04-25T08:46:19;99701.78;;;18.88;36.08
67842;BME280;54642;59.126;37.876;2023-04-25T08:49:08;99731.66;;;19.42;36.03
67842;BME280;54642;59.126;37.876;2023-04-25T08:51:36;99698.53;;;19.39;35.51
67842;BME280;54642;59.126;37.876;2023-04-25T08:54:10;99718.72;;;19.56;35.45
67842;BME280;54642;59.126;37.876;2023-04-25T08:56:41;99724.00;;;19.56;34.90
67842;BME280;54642;59.126;37.876;2023-04-25T08:59:10;99729.41;;;19.53;35.04
67842;BME280;54642;59.126;37.876;2023-04-25T09:01:37;99708.06;;;19.59;34.73
67842;BME280;54642;59.126;37.876;2023-04-25T09:04:03;99724.03;;;19.93;34.49
67842;BME280;54642;59.126;37.876;2023-04-25T09:06:31;99718.38;;;19.83;34.21
67842;BME280;54642;59.126;37.876;2023-04-25T09:09:06;99720.25;;;19.62;34.37
67842;BME280;54642;59.126;37.876;2023-04-25T09:11:34;99714.81;;;19.65;34.59
67842;BME280;54642;59.126;37.876;2023-04-25T09:14:17;99702.31;;;19.70;34.55
67842;BME280;54642;59.126;37.876;2023-04-25T09:17:04;99729.22;;;20.12;34.09
67842;BME280;54642;59.126;37.876;2023-04-25T09:22:35;99724.09;;;19.55;34.63
67842;BME280;54642;59.126;37.876;2023-04-25T09:25:12;99724.50;;;19.46;35.03
67842;BME280;54642;59.126;37.876;2023-04-25T09:27:51;99731.66;;;19.42;35.68
67842;BME280;54642;59.126;37.876;2023-04-25T09:30:32;99733.25;;;19.27;36.36
67842;BME280;54642;59.126;37.876;2023-04-25T09:33:08;99734.59;;;19.17;36.22
67842;BME280;54642;59.126;37.876;2023-04-25T09:35:54;99705.69;;;18.77;36.84
67842;BME280;54642;59.126;37.876;2023-04-25T09:38:46;99743.16;;;18.81;37.29
67842;BME280;54642;59.126;37.876;2023-04-25T09:41:24;99707.75;;;18.50;37.48
67842;BME280;54642;59.126;37.876;2023-04-25T09:43:50;99742.00;;;18.67;37.85
67842;BME280;54642;59.126;37.876;2023-04-25T09:46:16;99740.94;;;18.72;38.02
67842;BME280;54642;59.126;37.876;2023-04-25T09:48:51;99732.28;;;18.90;38.03
67842;BME280;54642;59.126;37.876;2023-04-25T09:51:26;99740.91;;;19.13;37.76
67842;BME280;54642;59.126;37.876;2023-04-25T09:53:53;99740.81;;;19.33;37.41
67842;BME280;54642;59.126;37.876;2023-04-25T09:56:36;99740.25;;;19.46;37.30
67842;BME280;54642;59.126;37.876;2023-04-25T09:59:07;99737.00;;;19.40;37.37
67842;BME280;54642;59.126;37.876;2023-04-25T10:01:35;99746.31;;;19.48;37.21
67842;BME280;54642;59.126;37.876;2023-04-25T10:04:13;99741.97;;;19.47;37.35
67842;BME280;54642;59.126;37.876;2023-04-25T10:06:56;99738.38;;;19.30;37.72
67842;BME280;54642;59.126;37.876;2023-04-25T10:09:25;99752.41;;;19.29;37.88
67842;BME280;54642;59.126;37.876;2023-04-25T10:11:52;99745.16;;;19.34;37.92
67842;BME280;54642;59.126;37.876;2023-04-25T10:14:19;99753.91;;;19.54;37.67
67842;BME280;54642;59.126;37.876;2023-04-25T10:16:47;99751.78;;;19.62;37.25
67842;BME280;54642;59.126;37.876;2023-04-25T10:19:13;99750.94;;;19.80;36.75
67842;BME280;54642;59.126;37.876;2023-04-25T10:21:46;99754.66;;;19.94;36.63
67842;BME280;54642;59.126;37.876;2023-04-25T10:24:14;99749.59;;;20.26;36.33
67842;BME280;54642;59.126;37.876;2023-04-25T10:26:41;99744.56;;;20.56;35.78
67842;BME280;54642;59.126;37.876;2023-04-25T10:29:09;99755.34;;;20.69;35.66
67842;BME280;54642;59.126;37.876;2023-04-25T10:31:44;99735.44;;;20.81;35.06
67842;BME280;54642;59.126;37.876;2023-04-25T10:34:11;99736.09;;;21.02;34.81
67842;BME280;54642;59.126;37.876;2023-04-25T10:36:37;99744.50;;;21.24;34.39
67842;BME280;54642;59.126;37.876;2023-04-25T10:39:04;99735.41;;;21.30;34.26
67842;BME280;54642;59.126;37.876;2023-04-25T10:41:45;99743.06;;;21.19;34.70
67842;BME280;54642;59.126;37.876;2023-04-25T10:44:11;99747.03;;;21.10;34.25
67842;BME280;54642;59.126;37.876;2023-04-25T10:46:37;99745.25;;;20.94;34.65
67842;BME280;54642;59.126;37.876;2023-04-25T10:49:03;99733.31;;;20.87;34.40
67842;BME280;54642;59.126;37.876;2023-04-25T10:51:31;99737.84;;;21.01;34.39
67842;BME280;54642;59.126;37.876;2023-04-25T10:54:02;99743.63;;;21.08;34.06
67842;BME280;54642;59.126;37.876;2023-04-25T10:56:33;99704.50;;;20.84;34.48
67842;BME280;54642;59.126;37.876;2023-04-25T10:59:18;99722.94;;;20.84;34.17
67842;BME280;54642;59.126;37.876;2023-04-25T11:01:51;99735.38;;;20.98;34.43
67842;BME280;54642;59.126;37.876;2023-04-25T11:04:32;99734.94;;;20.90;35.07
67842;BME280;54642;59.126;37.876;2023-04-25T11:09:32;99736.16;;;21.00;34.40
67842;BME280;54642;59.126;37.876;2023-04-25T11:11:59;99727.41;;;21.16;34.58
67842;BME280;54642;59.126;37.876;2023-04-25T11:14:26;99726.16;;;21.39;34.12
67842;BME280;54642;59.126;37.876;2023-04-25T11:16:57;99723.41;;;21.58;33.79
67842;BME280;54642;59.126;37.876;2023-04-25T11:19:24;99722.72;;;21.70;33.52
67842;BME280;54642;59.126;37.876;2023-04-25T11:21:51;99689.72;;;21.47;33.46
67842;BME280;54642;59.126;37.876;2023-04-25T11:24:28;99678.47;;;21.43;33.64
67842;BME280;54642;59.126;37.876;2023-04-25T11:26:54;99717.06;;;21.44;33.88
67842;BME280;54642;59.126;37.876;2023-04-25T11:29:26;99719.28;;;21.36;33.62
67842;BME280;54642;59.126;37.876;2023-04-25T11:31:53;99679.81;;;21.03;34.03
67842;BME280;54642;59.126;37.876;2023-04-25T11:34:19;99724.38;;;21.23;34.07
67842;BME280;54642;59.126;37.876;2023-04-25T11:36:46;99721.66;;;21.25;34.40
67842;BME280;54642;59.126;37.876;2023-04-25T11:39:12;99715.50;;;21.08;34.90
67842;BME280;54642;59.126;37.876;2023-04-25T11:41:38;99685.34;;;20.65;34.94
67842;BME280;54642;59.126;37.876;2023-04-25T11:44:05;99713.91;;;20.72;35.03
67842;BME280;54642;59.126;37.876;2023-04-25T11:46:33;99714.63;;;20.92;35.43
67842;BME280;54642;59.126;37.876;2023-04-25T11:49:00;99712.44;;;21.00;35.45
67842;BME280;54642;59.126;37.876;2023-04-25T11:51:27;99711.91;;;20.93;35.21
67842;BME280;54642;59.126;37.876;2023-04-25T11:53:53;99691.34;;;20.84;35.51
67842;BME280;54642;59.126;37.876;2023-04-25T11:56:20;99692.13;;;21.02;36.17
67842;BME280;54642;59.126;37.876;2023-04-25T11:59:05;99694.44;;;21.24;35.28
67842;BME280;54642;59.126;37.876;2023-04-25T12:01:33;99694.38;;;21.58;34.77
67842;BME280;54642;59.126;37.876;2023-04-25T12:04:11;99685.28;;;21.63;34.51
67842;BME280;54642;59.126;37.876;2023-04-25T12:06:38;99673.19;;;21.75;33.93
67842;BME280;54642;59.126;37.876;2023-04-25T12:09:11;99686.44;;;21.89;33.74
67842;BME280;54642;59.126;37.876;2023-04-25T12:11:45;99678.69;;;22.17;34.17
67842;BME280;54642;59.126;37.876;2023-04-25T12:14:12;99680.03;;;22.24;33.26
67842;BME280;54642;59.126;37.876;2023-04-25T12:16:46;99673.03;;;22.23;32.96
67842;BME280;54642;59.126;37.876;2023-04-25T12:19:15;99668.78;;;22.20;33.11
67842;BME280;54642;59.126;37.876;2023-04-25T12:21:41;99680.53;;;22.31;32.91
67842;BME280;54642;59.126;37.876;2023-04-25T12:26:58;99652.69;;;22.25;32.44
67842;BME280;54642;59.126;37.876;2023-04-25T12:29:26;99672.63;;;22.31;32.62
67842;BME280;54642;59.126;37.876;2023-04-25T12:31:53;99587.28;;;21.85;32.32
67842;BME280;54642;59.126;37.876;2023-04-25T12:34:20;99651.06;;;22.22;32.18
67842;BME280;54642;59.126;37.876;2023-04-25T12:36:47;99650.03;;;22.11;32.12
67842;BME280;54642;59.126;37.876;2023-04-25T12:39:18;99634.50;;;21.90;31.99
67842;BME280;54642;59.126;37.876;2023-04-25T12:41:48;99610.28;;;21.53;32.33
67842;BME280;54642;59.126;37.876;2023-04-25T12:44:14;99650.50;;;21.57;32.24
67842;BME280;54642;59.126;37.876;2023-04-25T12:46:40;99604.44;;;21.32;32.11
67842;BME280;54642;59.126;37.876;2023-04-25T12:49:07;99629.31;;;21.58;32.10
67842;BME280;54642;59.126;37.876;2023-04-25T12:51:34;99633.53;;;21.77;31.48
67842;BME280;54642;59.126;37.876;2023-04-25T12:54:02;99625.84;;;21.88;31.71
67842;BME280;54642;59.126;37.876;2023-04-25T12:56:28;99627.22;;;21.79;31.74
67842;BME280;54642;59.126;37.876;2023-04-25T12:58:55;99620.88;;;21.67;31.64
67842;BME280;54642;59.126;37.876;2023-04-25T13:01:21;99620.34;;;21.77;31.86
67842;BME280;54642;59.126;37.876;2023-04-25T13:03:47;99587.25;;;21.71;31.50
67842;BME280;54642;59.126;37.876;2023-04-25T13:06:15;99614.19;;;22.06;31.26
67842;BME280;54642;59.126;37.876;2023-04-25T13:08:41;99619.56;;;22.19;30.92
67842;BME280;54642;59.126;37.876;2023-04-25T13:11:08;99617.72;;;22.21;30.85
67842;BME280;54642;59.126;37.876;2023-04-25T13:13:35;99608.31;;;22.32;30.92
67842;BME280;54642;59.126;37.876;2023-04-25T13:16:01;99573.34;;;22.28;30.64